Lanes Prairie, Missouri
Current Conditions -  °F | °C
As of 7:00 AM on Friday 24 Oct 2014 (Local Time) from KVIH Reporting Station
Haze Haze  
Wind Chill: 45°   Ceiling: Unl
Heat Index: 49°   Visibility: 3mi
Dew Point: 47°   Wind: 8mph
Humidity: 93%   Direction: 220°SW
Pressure: 30.09"   Gusts: NA
Location:  38.2601°N, 91.7526°W
Report Text: KVIH 241200Z AUTO 22007KT 3SM BR CLR 09/08 A3009 RMK AO2 T00940083
Loading
Personal Weather Stations






























Interactive Weather Map
Tropical Storm Tracking
New forecast layout! Learn more

10-Day Weather Forecast

Advertisements
Track Severe Weather on mobile